Time;durP1;ratioP1;P1;durP2;ratioP2;P2;SDS_P1;SDS_P2;PMS_P1;PMS_P2;Temp;Humidity;BMP_temperature;BMP_pressure;BME280_temperature;BME280_humidity;BME280_pressure;Samples;Min_cycle;Max_cycle;Signal;HPM_P1;HPM_P2
2022/12/01 00:00:05;;;;;;;55.10;28.30;;;;;;;2.94;100.00;102283.88;5060239;28;20239;-65
2022/12/01 00:02:32;;;;;;;56.40;29.13;;;;;;;2.64;100.00;102283.09;5066330;28;20388;-64
2022/12/01 00:05:01;;;;;;;53.07;27.57;;;;;;;2.98;100.00;102271.97;5062977;28;20543;-64
2022/12/01 00:07:28;;;;;;;55.10;26.50;;;;;;;3.07;100.00;102282.84;5065010;28;20670;-66
2022/12/01 00:12:42;;;;;;;50.13;29.40;;;;;;;2.77;100.00;102280.38;5065268;28;20249;-66
2022/12/01 00:15:10;;;;;;;54.90;28.73;;;;;;;3.69;100.00;102282.72;5057114;28;20317;-66
2022/12/01 00:17:37;;;;;;;63.90;30.83;;;;;;;3.69;100.00;102280.13;5077962;28;20695;-64
2022/12/01 00:20:07;;;;;;;63.10;29.80;;;;;;;3.55;100.00;102275.91;5062950;28;20341;-65
2022/12/01 00:22:33;;;;;;;60.33;30.70;;;;;;;3.80;100.00;102273.75;5068212;28;20227;-65
2022/12/01 00:25:01;;;;;;;50.90;28.70;;;;;;;3.72;100.00;102280.28;5060630;28;20237;-66
2022/12/01 00:27:28;;;;;;;62.03;28.77;;;;;;;3.75;100.00;102288.19;5072321;28;20320;-69
2022/12/01 00:29:55;;;;;;;55.30;28.83;;;;;;;3.46;100.00;102278.00;5074065;28;20325;-64
2022/12/01 00:32:22;;;;;;;55.87;27.57;;;;;;;3.56;100.00;102282.88;5065537;28;20231;-65
2022/12/01 00:34:49;;;;;;;53.13;27.60;;;;;;;3.14;100.00;102282.38;5066450;28;20235;-64
2022/12/01 00:37:17;;;;;;;53.80;28.93;;;;;;;2.77;100.00;102285.56;5084803;27;20237;-64
2022/12/01 00:39:44;;;;;;;51.87;30.33;;;;;;;2.75;100.00;102278.50;5066814;28;20243;-64
2022/12/01 00:42:10;;;;;;;54.30;28.20;;;;;;;2.56;100.00;102274.88;5062430;28;20245;-65
2022/12/01 00:44:37;;;;;;;51.30;27.87;;;;;;;2.66;100.00;102289.22;5076481;28;20305;-65
2022/12/01 00:47:04;;;;;;;50.07;28.23;;;;;;;2.51;100.00;102275.41;5064214;28;20239;-63
2022/12/01 00:49:31;;;;;;;54.67;29.30;;;;;;;2.72;100.00;102281.81;5060633;28;20381;-64
2022/12/01 00:51:58;;;;;;;55.93;29.03;;;;;;;2.68;100.00;102279.84;5052640;28;20229;-64
2022/12/01 00:54:26;;;;;;;54.07;29.70;;;;;;;2.79;100.00;102281.34;5058201;28;20279;-64
2022/12/01 00:56:53;;;;;;;56.70;27.67;;;;;;;3.15;100.00;102289.34;5058437;28;20257;-65
2022/12/01 00:59:20;;;;;;;50.07;26.13;;;;;;;3.34;100.00;102292.13;5059562;28;20329;-65
2022/12/01 01:01:48;;;;;;;50.67;27.93;;;;;;;2.82;100.00;102291.00;5074622;28;20236;-65
2022/12/01 01:04:15;;;;;;;44.77;26.37;;;;;;;3.07;100.00;102293.22;5059105;28;20239;-64
2022/12/01 01:06:42;;;;;;;49.20;26.90;;;;;;;3.08;100.00;102292.41;5059824;28;20238;-65
2022/12/01 01:09:09;;;;;;;49.13;28.07;;;;;;;3.57;100.00;102300.22;5054425;28;20282;-64
2022/12/01 01:11:38;;;;;;;48.50;27.03;;;;;;;3.28;100.00;102306.47;5054697;28;20230;-64
2022/12/01 01:14:05;;;;;;;53.53;27.37;;;;;;;3.40;100.00;102316.63;5068841;28;20405;-65
2022/12/01 01:16:33;;;;;;;50.20;26.93;;;;;;;3.69;100.00;102306.09;5055534;28;20247;-65
2022/12/01 01:19:00;;;;;;;48.73;26.73;;;;;;;3.85;100.00;102301.66;5065360;28;20249;-65
2022/12/01 01:21:27;;;;;;;53.27;27.80;;;;;;;3.28;100.00;102307.38;5079698;28;21046;-65
2022/12/01 01:23:55;;;;;;;59.57;28.43;;;;;;;3.16;100.00;102298.94;5060612;28;20237;-64
2022/12/01 01:26:24;;;;;;;54.93;27.67;;;;;;;3.03;100.00;102302.56;5061059;28;20233;-64
2022/12/01 01:28:53;;;;;;;64.17;29.80;;;;;;;2.91;100.00;102298.38;5068830;28;20237;-63
2022/12/01 01:31:23;;;;;;;45.73;26.17;;;;;;;2.76;100.00;102296.72;5069175;28;20636;-63
2022/12/01 01:33:50;;;;;;;55.90;27.77;;;;;;;2.84;100.00;102302.31;5073047;28;20231;-64
2022/12/01 01:36:17;;;;;;;53.73;28.23;;;;;;;3.17;100.00;102302.41;5067992;28;20241;-65
2022/12/01 01:38:44;;;;;;;53.53;31.23;;;;;;;2.79;100.00;102299.50;5069451;28;20287;-65
2022/12/01 01:41:12;;;;;;;60.73;31.20;;;;;;;3.42;100.00;102300.31;5074772;28;20664;-65
2022/12/01 01:43:42;;;;;;;57.87;28.80;;;;;;;2.85;100.00;102294.66;5079305;28;20577;-63
2022/12/01 01:46:12;;;;;;;53.90;29.97;;;;;;;2.62;100.00;102295.06;5072501;28;20327;-64
2022/12/01 01:48:41;;;;;;;60.83;29.37;;;;;;;2.65;100.00;102303.00;5076232;28;20278;-64
2022/12/01 01:51:09;;;;;;;53.30;27.83;;;;;;;2.81;100.00;102297.88;5066932;28;20318;-64
2022/12/01 01:53:36;;;;;;;56.77;29.53;;;;;;;2.93;100.00;102294.19;5071447;28;20630;-65
2022/12/01 01:56:04;;;;;;;52.23;28.50;;;;;;;2.94;100.00;102303.75;5063464;28;20256;-64
2022/12/01 01:58:32;;;;;;;52.77;28.93;;;;;;;2.76;100.00;102296.72;5066186;28;20740;-64
2022/12/01 02:00:58;;;;;;;55.17;27.83;;;;;;;2.91;100.00;102295.78;5062005;28;20325;-64
2022/12/01 02:03:28;;;;;;;55.60;28.07;;;;;;;3.37;100.00;102298.28;5063811;28;20238;-64
2022/12/01 02:05:55;;;;;;;49.23;27.23;;;;;;;3.33;100.00;102298.16;5078610;28;20720;-65
2022/12/01 02:08:22;;;;;;;54.43;26.20;;;;;;;2.92;100.00;102297.59;5081011;28;20654;-66
2022/12/01 02:11:05;;;;;;;54.37;27.90;;;;;;;3.32;100.00;102298.03;5079537;28;20237;-65
2022/12/01 02:13:34;;;;;;;54.40;29.20;;;;;;;2.92;100.00;102292.41;5078468;28;20632;-67
2022/12/01 02:16:08;;;;;;;52.77;27.07;;;;;;;3.56;100.00;102290.66;5064148;28;20242;-65
2022/12/01 02:18:43;;;;;;;54.73;26.00;;;;;;;3.25;100.00;102285.53;5077319;28;20239;-65
2022/12/01 02:21:35;;;;;;;57.13;27.90;;;;;;;2.97;100.00;102278.84;5080409;28;20232;-67
2022/12/01 02:24:54;;;;;;;61.13;30.40;;;;;;;3.20;100.00;102282.72;5068261;28;20243;-63
2022/12/01 02:27:31;;;;;;;54.23;27.37;;;;;;;3.02;100.00;102282.63;5071957;28;20252;-67
2022/12/01 02:30:10;;;;;;;48.20;25.60;;;;;;;3.18;100.00;102281.72;5073479;28;20349;-64
2022/12/01 02:33:02;;;;;;;55.20;25.70;;;;;;;2.45;100.00;102280.25;5076695;28;20229;-65
2022/12/01 02:35:33;;;;;;;54.43;28.90;;;;;;;2.80;100.00;102275.34;5066470;28;20237;-69
2022/12/01 02:38:09;;;;;;;55.70;28.57;;;;;;;2.74;100.00;102275.03;5076316;28;20294;-65
2022/12/01 02:40:42;;;;;;;51.13;26.27;;;;;;;2.62;100.00;102277.78;5080079;28;20240;-66
2022/12/01 02:43:14;;;;;;;51.07;28.23;;;;;;;2.72;100.00;102270.53;5077945;28;20261;-66
2022/12/01 02:45:44;;;;;;;65.40;28.53;;;;;;;2.69;100.00;102276.44;5079043;28;20235;-66
2022/12/01 02:48:16;;;;;;;54.67;28.83;;;;;;;2.47;100.00;102268.28;5076653;28;20246;-66
2022/12/01 02:50:44;;;;;;;66.33;31.23;;;;;;;2.39;100.00;102273.03;5071251;28;20234;-64
2022/12/01 02:53:13;;;;;;;59.13;28.60;;;;;;;2.61;100.00;102273.44;5079470;28;20769;-64
2022/12/01 02:55:48;;;;;;;55.63;27.30;;;;;;;2.90;100.00;102270.66;5070389;28;20246;-64
2022/12/01 02:58:15;;;;;;;48.10;26.97;;;;;;;3.12;100.00;102268.41;5067168;28;20240;-64
2022/12/01 03:00:48;;;;;;;61.60;29.20;;;;;;;3.09;100.00;102269.16;5064082;28;20775;-65
2022/12/01 03:03:29;;;;;;;56.70;28.23;;;;;;;2.98;100.00;102277.16;5064250;28;20763;-64
2022/12/01 03:06:04;;;;;;;62.73;30.60;;;;;;;3.29;100.00;102280.59;5061745;28;20245;-64
2022/12/01 03:08:33;;;;;;;58.73;29.97;;;;;;;2.94;100.00;102281.28;5079617;28;20934;-64
2022/12/01 03:11:00;;;;;;;60.37;29.93;;;;;;;3.18;100.00;102279.13;5069176;28;20269;-64
2022/12/01 03:13:36;;;;;;;60.30;28.20;;;;;;;3.19;100.00;102275.72;5055027;28;20242;-63
2022/12/01 03:16:08;;;;;;;54.50;29.10;;;;;;;3.45;100.00;102273.63;5074045;28;20306;-63
2022/12/01 03:18:39;;;;;;;56.77;28.90;;;;;;;3.50;100.00;102267.84;5059619;28;20237;-63
2022/12/01 03:21:09;;;;;;;61.03;31.17;;;;;;;2.84;100.00;102276.41;5073942;28;20242;-63
2022/12/01 03:23:40;;;;;;;54.53;30.37;;;;;;;2.78;100.00;102274.38;5080644;28;20291;-65
2022/12/01 03:26:08;;;;;;;59.03;29.60;;;;;;;2.50;100.00;102274.53;5077402;28;20325;-64
2022/12/01 03:28:38;;;;;;;71.50;31.77;;;;;;;2.36;100.00;102276.34;5078969;28;20240;-64
2022/12/01 03:31:09;;;;;;;67.80;31.83;;;;;;;2.76;100.00;102280.28;5079814;28;20287;-65
2022/12/01 03:33:41;;;;;;;63.20;31.13;;;;;;;2.84;100.00;102269.53;5073934;28;20234;-63
2022/12/01 03:36:13;;;;;;;60.60;29.77;;;;;;;2.48;100.00;102270.06;5079205;28;20241;-64
2022/12/01 03:38:41;;;;;;;61.27;32.10;;;;;;;2.58;100.00;102269.78;5062547;28;20229;-63
2022/12/01 03:41:12;;;;;;;56.97;29.10;;;;;;;3.15;100.00;102278.97;5073701;28;20320;-66
2022/12/01 03:43:42;;;;;;;66.13;30.33;;;;;;;3.55;100.00;102273.31;5067454;28;20232;-64
2022/12/01 03:46:12;;;;;;;58.83;28.87;;;;;;;3.49;100.00;102281.66;5068199;28;20287;-66
2022/12/01 03:48:41;;;;;;;69.70;31.67;;;;;;;3.07;100.00;102269.88;5064249;28;20277;-63
2022/12/01 03:51:13;;;;;;;66.40;32.13;;;;;;;2.95;100.00;102284.75;5068544;28;20711;-64
2022/12/01 03:53:47;;;;;;;60.90;30.00;;;;;;;2.79;100.00;102288.22;5074973;28;20660;-65
2022/12/01 03:56:15;;;;;;;69.60;32.87;;;;;;;2.50;100.00;102284.00;5063231;28;20769;-66
2022/12/01 03:58:45;;;;;;;59.83;29.83;;;;;;;2.35;100.00;102289.19;5072636;28;20236;-64
2022/12/01 04:01:12;;;;;;;67.33;32.47;;;;;;;2.66;100.00;102285.75;5056644;28;20237;-64
2022/12/01 04:03:40;;;;;;;64.83;30.70;;;;;;;2.97;100.00;102286.66;5054460;28;20235;-64
2022/12/01 04:06:08;;;;;;;60.07;31.63;;;;;;;2.68;100.00;102298.00;5071077;28;20241;-64
2022/12/01 04:08:36;;;;;;;66.97;31.93;;;;;;;2.71;100.00;102298.19;5063267;28;20239;-63
2022/12/01 04:12:28;;;;;;;74.13;34.23;;;;;;;2.53;100.00;102298.03;5063173;28;20227;-65
2022/12/01 04:13:50;;;;;;;60.57;30.63;;;;;;;2.70;100.00;102293.78;5079383;28;20679;-63
2022/12/01 04:16:17;;;;;;;66.10;32.70;;;;;;;2.96;100.00;102291.75;5082518;28;20270;-62
2022/12/01 04:18:45;;;;;;;60.70;32.57;;;;;;;2.91;100.00;102294.06;5077558;28;20302;-68
2022/12/01 04:21:12;;;;;;;63.07;30.97;;;;;;;3.20;100.00;102298.28;5082653;28;20587;-64
2022/12/01 04:26:30;;;;;;;60.77;32.07;;;;;;;2.94;100.00;102290.78;5066695;28;20256;-63
2022/12/01 04:28:58;;;;;;;64.70;33.00;;;;;;;2.86;100.00;102292.94;5080052;28;20242;-63
2022/12/01 04:31:25;;;;;;;67.70;33.73;;;;;;;3.02;100.00;102292.06;5081203;28;20307;-64
2022/12/01 04:33:54;;;;;;;57.90;30.53;;;;;;;2.88;100.00;102296.53;5073887;28;20245;-64
2022/12/01 04:36:21;;;;;;;62.67;31.60;;;;;;;2.75;100.00;102291.47;5077940;28;20404;-64
2022/12/01 04:38:48;;;;;;;67.77;34.27;;;;;;;3.27;100.00;102300.41;5078843;28;20240;-63
2022/12/01 04:41:15;;;;;;;66.93;31.43;;;;;;;3.47;100.00;102298.84;5077507;28;20277;-62
2022/12/01 04:43:42;;;;;;;66.23;31.60;;;;;;;2.92;100.00;102295.88;5080005;28;20230;-62
2022/12/01 04:46:09;;;;;;;71.43;31.57;;;;;;;3.24;100.00;102297.63;5075017;28;20361;-63
2022/12/01 04:48:36;;;;;;;64.90;32.23;;;;;;;2.90;100.00;102304.38;5086762;28;20325;-62
2022/12/01 04:51:06;;;;;;;70.90;32.03;;;;;;;2.70;100.00;102301.56;5069932;28;20328;-62
2022/12/01 04:53:33;;;;;;;66.10;33.27;;;;;;;2.20;100.00;102307.34;5068216;28;20229;-63
2022/12/01 04:56:01;;;;;;;63.23;32.30;;;;;;;2.06;100.00;102305.66;5069466;28;20240;-64
2022/12/01 04:58:28;;;;;;;69.43;31.50;;;;;;;2.78;100.00;102309.78;5078995;28;21129;-63
2022/12/01 05:00:55;;;;;;;71.97;30.90;;;;;;;2.10;100.00;102307.59;5078658;28;20234;-64
2022/12/01 05:03:23;;;;;;;76.27;34.63;;;;;;;2.09;100.00;102309.31;5072321;28;20221;-63
2022/12/01 05:05:50;;;;;;;72.23;34.97;;;;;;;2.59;100.00;102311.31;5064155;28;20261;-63
2022/12/01 05:08:18;;;;;;;75.37;33.47;;;;;;;2.45;100.00;102306.16;5069442;28;20261;-63
2022/12/01 05:10:45;;;;;;;57.40;30.97;;;;;;;2.76;100.00;102314.00;5055446;28;20593;-64
2022/12/01 05:13:12;;;;;;;62.37;34.03;;;;;;;2.11;100.00;102305.13;5061438;28;20246;-63
2022/12/01 05:15:39;;;;;;;64.63;30.40;;;;;;;2.10;100.00;102312.78;5060116;28;20230;-64
2022/12/01 05:18:07;;;;;;;62.97;31.57;;;;;;;1.94;100.00;102316.19;5061409;28;20262;-63
2022/12/01 05:23:19;;;;;;;67.40;33.37;;;;;;;2.11;100.00;102317.19;5079011;28;20669;-64
2022/12/01 05:25:46;;;;;;;63.17;32.23;;;;;;;1.92;100.00;102317.78;5081634;28;20237;-63
2022/12/01 05:28:16;;;;;;;68.67;32.17;;;;;;;2.43;100.00;102312.97;5085153;28;20238;-62
2022/12/01 05:30:43;;;;;;;58.60;30.83;;;;;;;2.73;100.00;102313.81;5086545;28;20272;-64
2022/12/01 05:33:10;;;;;;;61.97;31.40;;;;;;;2.73;100.00;102319.88;5085963;28;20457;-64
2022/12/01 05:35:37;;;;;;;56.97;30.93;;;;;;;2.93;100.00;102317.53;5085720;28;20305;-64
2022/12/01 05:38:04;;;;;;;58.60;31.50;;;;;;;2.69;100.00;102322.22;5082707;28;20262;-64
2022/12/01 05:40:33;;;;;;;56.03;30.47;;;;;;;2.51;100.00;102317.78;5080789;28;20672;-64
2022/12/01 05:43:00;;;;;;;60.13;29.93;;;;;;;2.73;100.00;102329.38;5085180;28;20261;-63
2022/12/01 05:45:27;;;;;;;62.23;31.67;;;;;;;2.82;100.00;102324.72;5084176;28;20755;-62
2022/12/01 05:47:55;;;;;;;56.50;29.50;;;;;;;2.94;100.00;102325.38;5083311;28;20735;-63
2022/12/01 05:50:22;;;;;;;56.60;31.40;;;;;;;2.63;100.00;102328.88;5080520;28;20244;-62
2022/12/01 05:52:49;;;;;;;51.40;30.37;;;;;;;2.20;100.00;102333.25;5084528;28;20316;-62
2022/12/01 05:55:16;;;;;;;54.90;31.20;;;;;;;2.15;100.00;102334.69;5085349;28;20248;-63
2022/12/01 05:57:45;;;;;;;54.77;30.37;;;;;;;2.17;100.00;102330.47;5076643;28;20245;-63
2022/12/01 06:00:16;;;;;;;65.80;34.20;;;;;;;2.04;100.00;102335.78;5075349;27;20240;-63
2022/12/01 06:02:43;;;;;;;66.87;33.97;;;;;;;1.98;100.00;102338.88;5062900;28;20255;-63
2022/12/01 06:05:10;;;;;;;65.97;32.93;;;;;;;2.39;100.00;102333.53;5061775;28;20234;-62
2022/12/01 06:07:39;;;;;;;66.20;32.03;;;;;;;1.98;100.00;102338.00;5063122;28;20238;-62
2022/12/01 06:10:08;;;;;;;71.07;33.43;;;;;;;1.79;100.00;102331.72;5064069;28;20657;-62
2022/12/01 06:12:35;;;;;;;70.60;33.90;;;;;;;2.11;100.00;102331.03;5065021;28;20660;-62
2022/12/01 06:15:03;;;;;;;60.60;32.70;;;;;;;2.92;100.00;102336.50;5073922;28;20595;-63
2022/12/01 06:17:31;;;;;;;63.63;33.10;;;;;;;2.65;100.00;102331.53;5075525;28;20234;-63
2022/12/01 06:19:58;;;;;;;60.07;31.57;;;;;;;2.58;100.00;102330.28;5074326;28;21947;-62
2022/12/01 06:22:25;;;;;;;62.13;33.73;;;;;;;2.01;100.00;102331.28;5081073;28;20268;-62
2022/12/01 06:24:52;;;;;;;57.70;33.70;;;;;;;2.23;100.00;102341.22;5075149;28;20230;-63
2022/12/01 06:27:19;;;;;;;59.50;31.13;;;;;;;2.60;100.00;102333.00;5074541;28;20734;-62
2022/12/01 06:29:47;;;;;;;61.10;32.27;;;;;;;2.37;100.00;102344.63;5084551;28;20316;-62
2022/12/01 06:32:17;;;;;;;60.17;32.43;;;;;;;2.58;100.00;102334.59;5077621;28;20261;-62
2022/12/01 06:34:44;;;;;;;62.70;32.53;;;;;;;2.84;100.00;102334.38;5074201;28;20237;-62
2022/12/01 06:37:14;;;;;;;56.93;30.70;;;;;;;3.27;100.00;102343.63;5075435;28;20724;-63
2022/12/01 06:39:41;;;;;;;56.63;34.23;;;;;;;3.43;100.00;102347.94;5074208;28;20230;-79
2022/12/01 06:42:08;;;;;;;63.20;32.43;;;;;;;3.13;100.00;102349.78;5076946;28;20265;-64
2022/12/01 06:44:35;;;;;;;53.00;30.50;;;;;;;2.74;100.00;102349.31;5071767;28;20264;-63
2022/12/01 06:47:03;;;;;;;59.17;32.47;;;;;;;2.74;100.00;102352.81;5081323;28;20234;-63
2022/12/01 06:49:31;;;;;;;60.27;32.00;;;;;;;2.67;100.00;102354.94;5076896;28;20590;-63
2022/12/01 06:51:58;;;;;;;55.43;31.83;;;;;;;2.00;100.00;102362.25;5074892;28;20247;-63
2022/12/01 06:54:25;;;;;;;57.60;31.37;;;;;;;2.81;100.00;102354.94;5080619;28;20249;-62
2022/12/01 06:56:52;;;;;;;58.13;32.40;;;;;;;3.24;100.00;102352.16;5079520;28;20237;-63
2022/12/01 06:59:19;;;;;;;57.60;34.50;;;;;;;3.00;100.00;102363.75;5076837;28;20343;-63
2022/12/01 07:01:46;;;;;;;58.30;31.43;;;;;;;3.22;100.00;102365.84;5078639;28;20306;-62
2022/12/01 07:04:13;;;;;;;57.77;31.93;;;;;;;2.96;98.92;102359.22;5083583;28;20292;-61
2022/12/01 07:06:42;;;;;;;53.07;31.60;;;;;;;2.79;100.00;102355.66;5083530;28;20319;-62
2022/12/01 07:09:08;;;;;;;60.57;33.70;;;;;;;2.79;100.00;102364.31;5083271;28;20242;-61
2022/12/01 07:11:35;;;;;;;55.40;33.23;;;;;;;2.87;100.00;102359.56;5084540;28;20241;-62
2022/12/01 07:14:03;;;;;;;58.87;33.33;;;;;;;3.11;100.00;102365.25;5078283;28;20747;-62
2022/12/01 07:16:30;;;;;;;62.43;34.27;;;;;;;3.03;100.00;102357.03;5079519;28;20317;-62
2022/12/01 07:18:58;;;;;;;56.03;31.77;;;;;;;2.84;100.00;102352.53;5085170;28;20224;-63
2022/12/01 07:21:25;;;;;;;60.83;33.23;;;;;;;3.14;100.00;102357.63;5082686;28;20222;-67
2022/12/01 07:23:54;;;;;;;55.67;32.33;;;;;;;3.30;100.00;102357.69;5073246;28;20566;-63
2022/12/01 07:26:21;;;;;;;62.23;33.67;;;;;;;3.79;98.85;102364.56;5086290;28;20671;-64
2022/12/01 07:28:48;;;;;;;52.70;32.67;;;;;;;3.56;95.38;102368.56;5078235;28;20241;-64
2022/12/01 07:31:16;;;;;;;61.60;36.43;;;;;;;3.24;98.08;102366.81;5080537;28;20325;-63
2022/12/01 07:33:43;;;;;;;59.00;34.23;;;;;;;3.22;98.78;102371.91;5086631;28;20256;-62
2022/12/01 07:36:11;;;;;;;60.53;34.07;;;;;;;3.26;100.00;102375.56;5083023;28;20320;-64
2022/12/01 07:38:38;;;;;;;55.73;31.63;;;;;;;3.16;100.00;102368.09;5084659;28;20318;-69
2022/12/01 07:41:09;;;;;;;70.53;39.13;;;;;;;2.90;97.47;102369.22;5087192;28;20239;-74
2022/12/01 07:43:36;;;;;;;66.37;37.17;;;;;;;2.71;100.00;102373.38;5087180;28;20248;-68
2022/12/01 07:46:07;;;;;;;66.77;38.07;;;;;;;2.08;100.00;102381.78;5087623;27;20226;-62
2022/12/01 07:48:34;;;;;;;64.73;37.37;;;;;;;2.76;100.00;102376.22;5082593;28;20241;-63
2022/12/01 07:51:02;;;;;;;66.03;36.40;;;;;;;3.12;100.00;102374.81;5087465;28;20303;-64
2022/12/01 07:53:29;;;;;;;63.80;37.27;;;;;;;3.13;100.00;102379.22;5069274;28;20252;-63
2022/12/01 07:55:55;;;;;;;68.53;37.50;;;;;;;3.03;98.66;102376.91;5073044;28;20260;-64
2022/12/01 07:58:23;;;;;;;71.03;39.23;;;;;;;3.20;99.24;102376.16;5083598;28;20840;-62
2022/12/01 08:00:50;;;;;;;70.07;39.17;;;;;;;3.37;100.00;102386.53;5072621;28;20297;-62
2022/12/01 08:03:17;;;;;;;64.70;36.80;;;;;;;3.29;100.00;102376.63;5083849;28;20230;-67
2022/12/01 08:05:44;;;;;;;76.00;39.57;;;;;;;2.83;98.42;102379.25;5081161;28;20233;-62
2022/12/01 08:08:11;;;;;;;84.00;39.07;;;;;;;2.92;100.00;102370.22;5081897;28;20249;-62
2022/12/01 08:10:38;;;;;;;81.20;41.50;;;;;;;2.59;100.00;102389.09;5083456;28;20401;-65
2022/12/01 08:13:05;;;;;;;79.63;39.70;;;;;;;3.21;100.00;102383.13;5082380;28;20227;-61
2022/12/01 08:15:34;;;;;;;80.13;42.83;;;;;;;3.30;100.00;102386.22;5083563;28;20258;-62
2022/12/01 08:18:02;;;;;;;83.53;39.67;;;;;;;3.32;100.00;102388.91;5080503;28;21082;-63
2022/12/01 08:20:29;;;;;;;78.93;41.77;;;;;;;3.50;99.69;102383.81;5083343;28;20234;-63
2022/12/01 08:22:56;;;;;;;87.10;43.53;;;;;;;3.51;98.71;102390.78;5078559;28;20234;-63
2022/12/01 08:25:23;;;;;;;81.20;42.90;;;;;;;3.76;96.85;102390.44;5079207;28;20381;-62
2022/12/01 08:27:50;;;;;;;78.73;41.37;;;;;;;3.27;96.33;102380.88;5078583;28;20237;-63
2022/12/01 08:30:18;;;;;;;86.70;42.10;;;;;;;3.10;97.70;102379.91;5079170;28;20640;-63
2022/12/01 08:32:46;;;;;;;86.53;44.13;;;;;;;3.24;97.45;102387.59;5082308;28;20252;-63
2022/12/01 08:35:14;;;;;;;82.53;42.33;;;;;;;3.34;98.91;102393.38;5063094;28;20249;-63
2022/12/01 08:37:41;;;;;;;86.50;42.53;;;;;;;3.46;97.30;102387.06;5078440;28;20248;-63
2022/12/01 08:40:09;;;;;;;83.63;43.47;;;;;;;3.34;94.55;102398.56;5081320;28;20225;-63
2022/12/01 08:42:35;;;;;;;91.30;46.67;;;;;;;2.85;98.57;102387.16;5081233;28;20242;-63
2022/12/01 08:45:02;;;;;;;89.47;45.00;;;;;;;2.69;100.00;102390.53;5073920;28;20250;-68
2022/12/01 08:47:29;;;;;;;95.27;45.80;;;;;;;2.79;99.01;102398.06;5070787;28;20771;-62
2022/12/01 08:49:57;;;;;;;83.00;41.40;;;;;;;2.77;100.00;102384.13;5077779;28;20660;-62
2022/12/01 08:52:24;;;;;;;90.90;43.37;;;;;;;3.05;100.00;102390.84;5076612;28;20237;-62
2022/12/01 08:54:51;;;;;;;85.70;42.87;;;;;;;3.32;99.80;102391.50;5078627;28;20235;-62
2022/12/01 08:57:18;;;;;;;84.00;39.90;;;;;;;3.23;96.57;102397.09;5074878;28;20667;-63
2022/12/01 08:59:45;;;;;;;82.07;43.03;;;;;;;3.25;97.93;102395.44;5077142;28;20264;-62
2022/12/01 09:02:15;;;;;;;75.47;40.60;;;;;;;2.86;94.52;102404.47;5079933;28;20280;-62
2022/12/01 09:04:43;;;;;;;78.10;39.83;;;;;;;3.08;99.27;102399.69;5072373;28;20238;-67
2022/12/01 09:07:13;;;;;;;86.17;40.50;;;;;;;2.73;100.00;102400.28;5063164;28;20582;-62
2022/12/01 09:09:40;;;;;;;82.53;38.63;;;;;;;2.86;100.00;102395.00;5066511;28;20694;-61
2022/12/01 09:12:11;;;;;;;84.83;42.53;;;;;;;2.74;97.08;102404.69;5071720;28;20268;-62
2022/12/01 09:14:38;;;;;;;80.50;42.63;;;;;;;3.10;99.84;102397.19;5074402;28;20258;-62
2022/12/01 09:17:05;;;;;;;91.97;42.47;;;;;;;2.98;99.55;102399.97;5072567;28;20325;-63
2022/12/01 09:19:32;;;;;;;82.37;41.33;;;;;;;3.18;99.64;102408.88;5062431;28;20286;-61
2022/12/01 09:21:59;;;;;;;89.53;44.77;;;;;;;3.30;98.65;102393.09;5053816;28;20238;-62
2022/12/01 09:24:27;;;;;;;86.63;43.27;;;;;;;3.25;95.42;102404.94;5062496;28;20230;-63
2022/12/01 09:26:55;;;;;;;86.50;43.13;;;;;;;3.17;97.48;102401.91;5071255;28;20321;-62
2022/12/01 09:29:22;;;;;;;78.23;39.97;;;;;;;3.37;99.87;102395.25;5062356;28;20260;-63
2022/12/01 09:31:49;;;;;;;83.40;43.53;;;;;;;3.40;97.25;102394.50;5068080;28;20241;-63
2022/12/01 09:34:18;;;;;;;91.87;45.43;;;;;;;3.28;94.07;102397.31;5076898;28;20886;-63
2022/12/01 09:36:46;;;;;;;88.67;43.03;;;;;;;3.68;96.75;102392.59;5075756;28;20627;-63
2022/12/01 09:39:15;;;;;;;83.70;43.50;;;;;;;3.82;95.00;102396.81;5077955;28;20253;-62
2022/12/01 09:41:46;;;;;;;84.53;45.20;;;;;;;3.37;92.88;102391.72;5074214;28;20241;-61
2022/12/01 09:44:19;;;;;;;97.27;46.30;;;;;;;3.45;95.48;102398.25;5075144;28;20324;-61
2022/12/01 09:46:48;;;;;;;95.43;47.57;;;;;;;2.62;98.34;102399.66;5056555;28;20266;-62
2022/12/01 09:49:19;;;;;;;93.63;46.17;;;;;;;2.98;99.13;102396.50;5055757;28;20339;-62
2022/12/01 09:51:46;;;;;;;89.97;46.23;;;;;;;2.72;99.14;102395.91;5059393;28;20258;-62
2022/12/01 09:54:14;;;;;;;93.57;46.40;;;;;;;3.04;100.00;102396.84;5065263;28;20920;-62
2022/12/01 09:56:45;;;;;;;88.10;44.53;;;;;;;3.60;99.42;102388.69;5054812;28;20315;-62
2022/12/01 09:59:18;;;;;;;86.20;44.40;;;;;;;3.53;98.21;102383.97;5062795;28;20315;-62
2022/12/01 10:01:47;;;;;;;87.77;43.60;;;;;;;3.25;95.77;102395.44;5062089;28;20230;-63
2022/12/01 10:04:20;;;;;;;81.63;44.37;;;;;;;3.05;99.25;102385.66;5055448;28;20259;-62
2022/12/01 10:06:51;;;;;;;88.20;42.63;;;;;;;2.93;98.39;102390.16;5072501;28;20237;-62
2022/12/01 10:09:22;;;;;;;86.23;43.60;;;;;;;3.32;97.24;102392.38;5073874;28;20233;-62
2022/12/01 10:11:53;;;;;;;91.57;42.87;;;;;;;3.52;95.47;102384.81;5070172;28;20239;-62
2022/12/01 10:14:21;;;;;;;84.07;42.53;;;;;;;3.81;95.38;102384.66;5065548;28;20322;-65
2022/12/01 10:16:55;;;;;;;74.47;40.57;;;;;;;3.47;91.74;102389.72;5071475;28;20750;-63
2022/12/01 10:19:27;;;;;;;80.60;43.07;;;;;;;3.27;94.99;102385.16;5070733;28;20704;-63
2022/12/01 10:22:04;;;;;;;77.03;39.87;;;;;;;3.59;95.91;102376.53;5078158;28;20233;-62
2022/12/01 10:24:40;;;;;;;86.03;43.33;;;;;;;3.30;92.49;102369.72;5068985;28;20236;-62
2022/12/01 10:27:16;;;;;;;78.57;39.80;;;;;;;3.63;96.58;102372.41;5055703;28;20230;-64
2022/12/01 10:29:48;;;;;;;82.90;43.80;;;;;;;3.54;94.49;102372.78;5075536;28;20453;-64
2022/12/01 10:32:18;;;;;;;84.83;42.00;;;;;;;3.32;94.23;102373.31;5080060;28;20880;-63
2022/12/01 10:34:46;;;;;;;82.37;42.73;;;;;;;3.61;93.32;102367.09;5080940;28;20254;-67
2022/12/01 10:37:17;;;;;;;81.73;42.03;;;;;;;3.54;94.20;102364.97;5082107;28;20304;-63
2022/12/01 10:39:46;;;;;;;69.17;39.43;;;;;;;3.58;92.82;102374.75;5081309;28;20294;-64
2022/12/01 10:42:29;;;;;;;83.40;41.90;;;;;;;3.27;93.30;102362.69;5080062;28;20364;-63
2022/12/01 10:44:57;;;;;;;71.07;37.33;;;;;;;3.66;94.91;102362.16;5075207;28;20855;-63
2022/12/01 10:47:26;;;;;;;73.37;41.20;;;;;;;3.55;93.22;102361.59;5074491;28;20233;-65
2022/12/01 10:49:53;;;;;;;70.20;38.00;;;;;;;3.58;95.04;102354.88;5083982;28;20252;-63
2022/12/01 10:52:32;;;;;;;69.37;39.53;;;;;;;3.74;90.56;102366.06;5083160;28;20237;-63
2022/12/01 10:55:01;;;;;;;78.13;42.53;;;;;;;3.76;92.15;102364.44;5080916;28;20228;-63
2022/12/01 10:57:30;;;;;;;60.43;37.77;;;;;;;3.20;91.61;102363.16;5081132;28;20770;-64
2022/12/01 11:00:00;;;;;;;69.53;36.90;;;;;;;3.40;93.53;102360.75;5074750;28;20224;-64
2022/12/01 11:02:29;;;;;;;70.00;39.63;;;;;;;3.06;94.05;102367.59;5090691;28;20225;-64
2022/12/01 11:04:58;;;;;;;70.23;38.90;;;;;;;2.94;95.49;102356.50;5080384;28;20240;-64
2022/12/01 11:07:29;;;;;;;65.37;36.77;;;;;;;3.13;96.69;102355.84;5061531;28;20741;-64
2022/12/01 11:10:12;;;;;;;64.73;34.97;;;;;;;3.09;94.60;102357.38;5075204;28;20268;-63
2022/12/01 11:12:40;;;;;;;65.17;35.93;;;;;;;3.30;94.43;102349.88;5080789;28;20246;-64
2022/12/01 11:15:08;;;;;;;68.30;38.47;;;;;;;3.13;92.51;102355.84;5065024;28;20237;-63
2022/12/01 11:17:38;;;;;;;63.50;36.27;;;;;;;3.39;95.54;102356.38;5061920;28;20291;-63
2022/12/01 11:20:29;;;;;;;64.17;36.60;;;;;;;3.36;95.94;102349.31;5065973;28;20230;-62
2022/12/01 11:23:23;;;;;;;63.97;36.60;;;;;;;3.42;94.96;102356.56;5059085;28;20235;-62
2022/12/01 11:26:00;;;;;;;60.67;36.23;;;;;;;3.34;95.01;102346.66;5067229;28;20230;-64
2022/12/01 11:28:29;;;;;;;64.40;35.97;;;;;;;3.45;92.80;102346.34;5063165;28;20248;-63